sensor_id;sensor_type;location;lat;lon;timestamp;P1;durP1;ratioP1;P2;durP2;ratioP2
16179;SDS011;8196;49.428;10.906;2022-07-25T00:01:18;11.20;;;10.20;;
16179;SDS011;8196;49.428;10.906;2022-07-25T00:03:46;12.57;;;11.27;;
16179;SDS011;8196;49.428;10.906;2022-07-25T00:06:13;14.85;;;11.02;;
16179;SDS011;8196;49.428;10.906;2022-07-25T00:08:43;11.65;;;10.55;;
16179;SDS011;8196;49.428;10.906;2022-07-25T00:11:10;12.02;;;10.93;;
16179;SDS011;8196;49.428;10.906;2022-07-25T00:13:37;12.13;;;10.85;;
16179;SDS011;8196;49.428;10.906;2022-07-25T00:16:04;11.82;;;10.63;;
16179;SDS011;8196;49.428;10.906;2022-07-25T00:18:32;12.02;;;10.88;;
16179;SDS011;8196;49.428;10.906;2022-07-25T00:20:59;12.18;;;11.02;;
16179;SDS011;8196;49.428;10.906;2022-07-25T00:23:26;12.80;;;11.50;;
16179;SDS011;8196;49.428;10.906;2022-07-25T00:25:53;12.38;;;11.27;;
16179;SDS011;8196;49.428;10.906;2022-07-25T00:28:20;12.55;;;11.35;;
16179;SDS011;8196;49.428;10.906;2022-07-25T00:30:47;12.55;;;11.20;;
16179;SDS011;8196;49.428;10.906;2022-07-25T00:33:15;13.05;;;11.32;;
16179;SDS011;8196;49.428;10.906;2022-07-25T00:35:42;12.32;;;11.13;;
16179;SDS011;8196;49.428;10.906;2022-07-25T00:38:09;11.88;;;10.75;;
16179;SDS011;8196;49.428;10.906;2022-07-25T00:40:37;12.95;;;11.65;;
16179;SDS011;8196;49.428;10.906;2022-07-25T00:43:04;12.60;;;11.27;;
16179;SDS011;8196;49.428;10.906;2022-07-25T00:45:31;12.57;;;11.38;;
16179;SDS011;8196;49.428;10.906;2022-07-25T00:47:58;12.10;;;11.00;;
16179;SDS011;8196;49.428;10.906;2022-07-25T00:50:25;12.25;;;11.20;;
16179;SDS011;8196;49.428;10.906;2022-07-25T00:52:52;12.98;;;11.80;;
16179;SDS011;8196;49.428;10.906;2022-07-25T00:55:20;12.00;;;10.90;;
16179;SDS011;8196;49.428;10.906;2022-07-25T00:57:47;13.13;;;11.88;;
16179;SDS011;8196;49.428;10.906;2022-07-25T01:00:15;13.30;;;12.05;;
16179;SDS011;8196;49.428;10.906;2022-07-25T01:02:43;12.90;;;11.80;;
16179;SDS011;8196;49.428;10.906;2022-07-25T01:05:10;13.02;;;11.82;;
16179;SDS011;8196;49.428;10.906;2022-07-25T01:07:38;13.68;;;12.38;;
16179;SDS011;8196;49.428;10.906;2022-07-25T01:10:05;13.35;;;12.13;;
16179;SDS011;8196;49.428;10.906;2022-07-25T01:12:49;13.35;;;12.13;;
16179;SDS011;8196;49.428;10.906;2022-07-25T01:15:18;12.63;;;11.43;;
16179;SDS011;8196;49.428;10.906;2022-07-25T01:17:45;12.07;;;10.88;;
16179;SDS011;8196;49.428;10.906;2022-07-25T01:20:13;12.63;;;11.43;;
16179;SDS011;8196;49.428;10.906;2022-07-25T01:22:41;13.77;;;12.40;;
16179;SDS011;8196;49.428;10.906;2022-07-25T01:25:08;12.93;;;11.65;;
16179;SDS011;8196;49.428;10.906;2022-07-25T01:27:35;13.27;;;11.88;;
16179;SDS011;8196;49.428;10.906;2022-07-25T01:30:04;13.98;;;12.68;;
16179;SDS011;8196;49.428;10.906;2022-07-25T01:32:32;13.25;;;11.98;;
16179;SDS011;8196;49.428;10.906;2022-07-25T01:35:00;13.25;;;11.95;;
16179;SDS011;8196;49.428;10.906;2022-07-25T01:37:27;12.75;;;11.50;;
16179;SDS011;8196;49.428;10.906;2022-07-25T01:39:54;13.35;;;12.15;;
16179;SDS011;8196;49.428;10.906;2022-07-25T01:42:21;14.00;;;12.57;;
16179;SDS011;8196;49.428;10.906;2022-07-25T01:44:48;14.13;;;12.68;;
16179;SDS011;8196;49.428;10.906;2022-07-25T01:47:15;14.98;;;13.57;;
16179;SDS011;8196;49.428;10.906;2022-07-25T01:49:43;14.07;;;12.75;;
16179;SDS011;8196;49.428;10.906;2022-07-25T01:52:10;14.88;;;13.20;;
16179;SDS011;8196;49.428;10.906;2022-07-25T01:54:38;13.10;;;11.82;;
16179;SDS011;8196;49.428;10.906;2022-07-25T01:57:05;14.13;;;12.70;;
16179;SDS011;8196;49.428;10.906;2022-07-25T01:59:35;14.07;;;12.77;;
16179;SDS011;8196;49.428;10.906;2022-07-25T02:02:04;14.07;;;12.77;;
16179;SDS011;8196;49.428;10.906;2022-07-25T02:04:31;13.63;;;12.32;;
16179;SDS011;8196;49.428;10.906;2022-07-25T02:06:59;14.10;;;12.73;;
16179;SDS011;8196;49.428;10.906;2022-07-25T02:09:26;14.10;;;12.80;;
16179;SDS011;8196;49.428;10.906;2022-07-25T02:11:53;14.73;;;13.32;;
16179;SDS011;8196;49.428;10.906;2022-07-25T02:14:21;12.48;;;11.38;;
16179;SDS011;8196;49.428;10.906;2022-07-25T02:16:48;13.27;;;12.02;;
16179;SDS011;8196;49.428;10.906;2022-07-25T02:19:15;13.57;;;12.27;;
16179;SDS011;8196;49.428;10.906;2022-07-25T02:21:42;14.93;;;13.52;;
16179;SDS011;8196;49.428;10.906;2022-07-25T02:24:10;14.02;;;12.77;;
16179;SDS011;8196;49.428;10.906;2022-07-25T02:26:37;14.55;;;13.15;;
16179;SDS011;8196;49.428;10.906;2022-07-25T02:29:04;13.32;;;12.13;;
16179;SDS011;8196;49.428;10.906;2022-07-25T02:31:31;14.57;;;13.18;;
16179;SDS011;8196;49.428;10.906;2022-07-25T02:33:58;14.55;;;13.25;;
16179;SDS011;8196;49.428;10.906;2022-07-25T02:36:25;14.32;;;13.02;;
16179;SDS011;8196;49.428;10.906;2022-07-25T02:38:53;13.05;;;11.85;;
16179;SDS011;8196;49.428;10.906;2022-07-25T02:41:20;14.35;;;13.05;;
16179;SDS011;8196;49.428;10.906;2022-07-25T02:43:47;13.10;;;11.80;;
16179;SDS011;8196;49.428;10.906;2022-07-25T02:46:14;14.85;;;13.35;;
16179;SDS011;8196;49.428;10.906;2022-07-25T02:48:41;13.07;;;11.93;;
16179;SDS011;8196;49.428;10.906;2022-07-25T02:51:09;13.45;;;12.27;;
16179;SDS011;8196;49.428;10.906;2022-07-25T02:53:36;13.93;;;12.60;;
16179;SDS011;8196;49.428;10.906;2022-07-25T02:56:22;14.68;;;13.38;;
16179;SDS011;8196;49.428;10.906;2022-07-25T02:58:49;15.27;;;13.88;;
16179;SDS011;8196;49.428;10.906;2022-07-25T03:01:16;14.20;;;12.90;;
16179;SDS011;8196;49.428;10.906;2022-07-25T03:03:44;14.75;;;13.45;;
16179;SDS011;8196;49.428;10.906;2022-07-25T03:06:11;14.00;;;12.80;;
16179;SDS011;8196;49.428;10.906;2022-07-25T03:08:38;15.20;;;13.70;;
16179;SDS011;8196;49.428;10.906;2022-07-25T03:11:05;14.25;;;13.00;;
16179;SDS011;8196;49.428;10.906;2022-07-25T03:13:32;15.60;;;14.07;;
16179;SDS011;8196;49.428;10.906;2022-07-25T03:16:00;14.43;;;13.15;;
16179;SDS011;8196;49.428;10.906;2022-07-25T03:18:27;15.35;;;13.85;;
16179;SDS011;8196;49.428;10.906;2022-07-25T03:20:54;14.50;;;13.00;;
16179;SDS011;8196;49.428;10.906;2022-07-25T03:23:21;14.57;;;13.13;;
16179;SDS011;8196;49.428;10.906;2022-07-25T03:25:50;15.27;;;13.82;;
16179;SDS011;8196;49.428;10.906;2022-07-25T03:28:17;15.15;;;13.65;;
16179;SDS011;8196;49.428;10.906;2022-07-25T03:30:44;14.93;;;13.40;;
16179;SDS011;8196;49.428;10.906;2022-07-25T03:33:11;14.55;;;13.23;;
16179;SDS011;8196;49.428;10.906;2022-07-25T03:35:38;14.98;;;13.57;;
16179;SDS011;8196;49.428;10.906;2022-07-25T03:38:06;15.05;;;13.73;;
16179;SDS011;8196;49.428;10.906;2022-07-25T03:40:33;15.60;;;14.13;;
16179;SDS011;8196;49.428;10.906;2022-07-25T03:43:01;16.02;;;14.45;;
16179;SDS011;8196;49.428;10.906;2022-07-25T03:45:28;15.75;;;14.25;;
16179;SDS011;8196;49.428;10.906;2022-07-25T03:47:55;15.15;;;13.73;;
16179;SDS011;8196;49.428;10.906;2022-07-25T03:50:23;14.40;;;13.05;;
16179;SDS011;8196;49.428;10.906;2022-07-25T03:52:50;15.05;;;13.63;;
16179;SDS011;8196;49.428;10.906;2022-07-25T03:55:17;14.65;;;13.25;;
16179;SDS011;8196;49.428;10.906;2022-07-25T03:57:45;15.88;;;14.27;;
16179;SDS011;8196;49.428;10.906;2022-07-25T04:00:12;15.95;;;14.45;;
16179;SDS011;8196;49.428;10.906;2022-07-25T04:02:40;14.80;;;13.40;;
16179;SDS011;8196;49.428;10.906;2022-07-25T04:05:08;15.95;;;14.30;;
16179;SDS011;8196;49.428;10.906;2022-07-25T04:07:35;14.00;;;12.77;;
16179;SDS011;8196;49.428;10.906;2022-07-25T04:10:03;15.77;;;14.32;;
16179;SDS011;8196;49.428;10.906;2022-07-25T04:12:31;14.93;;;13.43;;
16179;SDS011;8196;49.428;10.906;2022-07-25T04:14:58;12.80;;;11.65;;
16179;SDS011;8196;49.428;10.906;2022-07-25T04:17:25;14.52;;;13.23;;
16179;SDS011;8196;49.428;10.906;2022-07-25T04:19:52;14.75;;;13.27;;
16179;SDS011;8196;49.428;10.906;2022-07-25T04:22:20;15.00;;;13.50;;
16179;SDS011;8196;49.428;10.906;2022-07-25T04:24:47;13.68;;;12.27;;
16179;SDS011;8196;49.428;10.906;2022-07-25T04:27:14;14.55;;;13.15;;
16179;SDS011;8196;49.428;10.906;2022-07-25T04:29:41;15.63;;;14.05;;
16179;SDS011;8196;49.428;10.906;2022-07-25T04:32:09;15.15;;;13.68;;
16179;SDS011;8196;49.428;10.906;2022-07-25T04:34:36;14.65;;;13.38;;
16179;SDS011;8196;49.428;10.906;2022-07-25T04:37:03;14.68;;;13.30;;
16179;SDS011;8196;49.428;10.906;2022-07-25T04:39:30;15.02;;;13.52;;
16179;SDS011;8196;49.428;10.906;2022-07-25T04:41:57;14.73;;;13.43;;
16179;SDS011;8196;49.428;10.906;2022-07-25T04:44:24;15.40;;;13.90;;
16179;SDS011;8196;49.428;10.906;2022-07-25T04:46:51;14.68;;;13.25;;
16179;SDS011;8196;49.428;10.906;2022-07-25T04:49:18;15.23;;;13.80;;
16179;SDS011;8196;49.428;10.906;2022-07-25T04:51:46;15.30;;;13.75;;
16179;SDS011;8196;49.428;10.906;2022-07-25T04:54:13;14.98;;;13.57;;
16179;SDS011;8196;49.428;10.906;2022-07-25T04:56:40;14.35;;;13.05;;
16179;SDS011;8196;49.428;10.906;2022-07-25T04:59:07;14.98;;;13.55;;
16179;SDS011;8196;49.428;10.906;2022-07-25T05:01:34;15.07;;;13.68;;
16179;SDS011;8196;49.428;10.906;2022-07-25T05:04:02;14.75;;;12.68;;
16179;SDS011;8196;49.428;10.906;2022-07-25T05:06:29;15.50;;;13.93;;
16179;SDS011;8196;49.428;10.906;2022-07-25T05:08:56;14.93;;;13.38;;
16179;SDS011;8196;49.428;10.906;2022-07-25T05:11:24;15.75;;;14.13;;
16179;SDS011;8196;49.428;10.906;2022-07-25T05:13:50;17.30;;;13.80;;
16179;SDS011;8196;49.428;10.906;2022-07-25T05:16:17;15.93;;;14.40;;
16179;SDS011;8196;49.428;10.906;2022-07-25T05:18:44;14.50;;;13.00;;
16179;SDS011;8196;49.428;10.906;2022-07-25T05:21:11;15.77;;;14.10;;
16179;SDS011;8196;49.428;10.906;2022-07-25T05:23:39;16.13;;;14.60;;
16179;SDS011;8196;49.428;10.906;2022-07-25T05:26:06;15.05;;;13.40;;
16179;SDS011;8196;49.428;10.906;2022-07-25T05:28:34;14.55;;;13.15;;
16179;SDS011;8196;49.428;10.906;2022-07-25T05:31:01;15.07;;;13.50;;
16179;SDS011;8196;49.428;10.906;2022-07-25T05:33:28;15.17;;;12.73;;
16179;SDS011;8196;49.428;10.906;2022-07-25T05:35:55;14.32;;;12.73;;
16179;SDS011;8196;49.428;10.906;2022-07-25T05:38:23;17.45;;;15.60;;
16179;SDS011;8196;49.428;10.906;2022-07-25T05:40:50;22.43;;;19.77;;
16179;SDS011;8196;49.428;10.906;2022-07-25T05:43:17;18.60;;;16.48;;
16179;SDS011;8196;49.428;10.906;2022-07-25T05:45:44;15.18;;;13.00;;
16179;SDS011;8196;49.428;10.906;2022-07-25T05:48:13;14.35;;;10.57;;
16179;SDS011;8196;49.428;10.906;2022-07-25T05:50:40;12.80;;;11.37;;
16179;SDS011;8196;49.428;10.906;2022-07-25T05:53:07;16.23;;;13.90;;
16179;SDS011;8196;49.428;10.906;2022-07-25T05:55:34;13.20;;;11.73;;
16179;SDS011;8196;49.428;10.906;2022-07-25T05:58:06;12.97;;;11.60;;
16179;SDS011;8196;49.428;10.906;2022-07-25T06:00:34;11.80;;;10.13;;
16179;SDS011;8196;49.428;10.906;2022-07-25T06:03:01;9.45;;;8.50;;
16179;SDS011;8196;49.428;10.906;2022-07-25T06:05:29;11.65;;;8.70;;
16179;SDS011;8196;49.428;10.906;2022-07-25T06:07:56;11.55;;;8.75;;
16179;SDS011;8196;49.428;10.906;2022-07-25T06:10:23;9.73;;;8.73;;
16179;SDS011;8196;49.428;10.906;2022-07-25T06:12:50;8.77;;;7.82;;
16179;SDS011;8196;49.428;10.906;2022-07-25T06:15:17;10.23;;;8.02;;
16179;SDS011;8196;49.428;10.906;2022-07-25T06:17:52;8.93;;;8.02;;
16179;SDS011;8196;49.428;10.906;2022-07-25T06:20:19;9.00;;;7.97;;
16179;SDS011;8196;49.428;10.906;2022-07-25T06:22:46;13.38;;;8.10;;
16179;SDS011;8196;49.428;10.906;2022-07-25T06:25:14;8.98;;;8.10;;
16179;SDS011;8196;49.428;10.906;2022-07-25T06:27:41;9.15;;;7.53;;
16179;SDS011;8196;49.428;10.906;2022-07-25T06:30:09;8.02;;;7.22;;
16179;SDS011;8196;49.428;10.906;2022-07-25T06:32:46;7.97;;;7.15;;
16179;SDS011;8196;49.428;10.906;2022-07-25T06:35:13;8.02;;;7.22;;
16179;SDS011;8196;49.428;10.906;2022-07-25T06:37:40;7.95;;;7.10;;
16179;SDS011;8196;49.428;10.906;2022-07-25T06:40:07;7.60;;;6.90;;
16179;SDS011;8196;49.428;10.906;2022-07-25T06:42:36;7.70;;;6.90;;
16179;SDS011;8196;49.428;10.906;2022-07-25T06:45:05;8.00;;;7.20;;
16179;SDS011;8196;49.428;10.906;2022-07-25T06:47:32;8.00;;;7.30;;
16179;SDS011;8196;49.428;10.906;2022-07-25T06:50:01;7.97;;;7.22;;
16179;SDS011;8196;49.428;10.906;2022-07-25T06:52:32;8.45;;;6.88;;
16179;SDS011;8196;49.428;10.906;2022-07-25T06:55:00;7.25;;;6.60;;
16179;SDS011;8196;49.428;10.906;2022-07-25T06:57:28;7.45;;;6.75;;
16179;SDS011;8196;49.428;10.906;2022-07-25T06:59:55;7.37;;;6.67;;
16179;SDS011;8196;49.428;10.906;2022-07-25T07:02:22;8.07;;;7.28;;
16179;SDS011;8196;49.428;10.906;2022-07-25T07:04:49;8.20;;;7.10;;
16179;SDS011;8196;49.428;10.906;2022-07-25T07:07:17;8.98;;;7.28;;
16179;SDS011;8196;49.428;10.906;2022-07-25T07:09:44;8.50;;;6.78;;
16179;SDS011;8196;49.428;10.906;2022-07-25T07:12:11;7.70;;;6.53;;
16179;SDS011;8196;49.428;10.906;2022-07-25T07:14:38;7.47;;;6.75;;
16179;SDS011;8196;49.428;10.906;2022-07-25T07:17:06;7.32;;;6.68;;
16179;SDS011;8196;49.428;10.906;2022-07-25T07:19:33;7.20;;;6.50;;
16179;SDS011;8196;49.428;10.906;2022-07-25T07:22:00;7.13;;;6.50;;
16179;SDS011;8196;49.428;10.906;2022-07-25T07:24:29;7.72;;;6.90;;
16179;SDS011;8196;49.428;10.906;2022-07-25T07:26:56;6.85;;;6.30;;
16179;SDS011;8196;49.428;10.906;2022-07-25T07:29:24;7.70;;;7.00;;
16179;SDS011;8196;49.428;10.906;2022-07-25T07:31:51;7.47;;;6.87;;
16179;SDS011;8196;49.428;10.906;2022-07-25T07:34:19;7.20;;;6.60;;
16179;SDS011;8196;49.428;10.906;2022-07-25T07:36:46;7.35;;;6.65;;
16179;SDS011;8196;49.428;10.906;2022-07-25T07:39:13;6.88;;;6.20;;
16179;SDS011;8196;49.428;10.906;2022-07-25T07:41:41;7.45;;;6.75;;
16179;SDS011;8196;49.428;10.906;2022-07-25T07:44:08;7.20;;;6.50;;
16179;SDS011;8196;49.428;10.906;2022-07-25T07:46:36;7.50;;;6.70;;
16179;SDS011;8196;49.428;10.906;2022-07-25T07:49:04;7.35;;;6.75;;
16179;SDS011;8196;49.428;10.906;2022-07-25T07:51:31;7.72;;;6.80;;
16179;SDS011;8196;49.428;10.906;2022-07-25T07:53:58;7.20;;;6.50;;
16179;SDS011;8196;49.428;10.906;2022-07-25T07:56:45;7.93;;;6.75;;
16179;SDS011;8196;49.428;10.906;2022-07-25T07:59:13;7.65;;;6.88;;
16179;SDS011;8196;49.428;10.906;2022-07-25T08:01:40;7.38;;;6.68;;
16179;SDS011;8196;49.428;10.906;2022-07-25T08:04:07;7.47;;;6.77;;
16179;SDS011;8196;49.428;10.906;2022-07-25T08:06:34;6.97;;;6.38;;
16179;SDS011;8196;49.428;10.906;2022-07-25T08:09:01;6.90;;;6.30;;
16179;SDS011;8196;49.428;10.906;2022-07-25T08:11:29;6.47;;;5.87;;
16179;SDS011;8196;49.428;10.906;2022-07-25T08:13:56;6.95;;;6.35;;
16179;SDS011;8196;49.428;10.906;2022-07-25T08:16:24;6.72;;;6.13;;
16179;SDS011;8196;49.428;10.906;2022-07-25T08:18:50;8.07;;;6.15;;
16179;SDS011;8196;49.428;10.906;2022-07-25T08:21:18;6.88;;;6.28;;
16179;SDS011;8196;49.428;10.906;2022-07-25T08:23:45;7.03;;;6.32;;
16179;SDS011;8196;49.428;10.906;2022-07-25T08:26:13;6.22;;;5.65;;
16179;SDS011;8196;49.428;10.906;2022-07-25T08:28:41;8.18;;;5.72;;
16179;SDS011;8196;49.428;10.906;2022-07-25T08:31:08;6.97;;;6.30;;
16179;SDS011;8196;49.428;10.906;2022-07-25T08:33:35;6.75;;;6.20;;
16179;SDS011;8196;49.428;10.906;2022-07-25T08:36:03;6.68;;;6.07;;
16179;SDS011;8196;49.428;10.906;2022-07-25T08:38:30;6.93;;;6.32;;
16179;SDS011;8196;49.428;10.906;2022-07-25T08:40:57;6.72;;;6.13;;
16179;SDS011;8196;49.428;10.906;2022-07-25T08:43:25;6.50;;;5.90;;
16179;SDS011;8196;49.428;10.906;2022-07-25T08:45:54;6.10;;;5.60;;
16179;SDS011;8196;49.428;10.906;2022-07-25T08:48:22;6.95;;;6.18;;
16179;SDS011;8196;49.428;10.906;2022-07-25T08:50:50;6.60;;;6.00;;
16179;SDS011;8196;49.428;10.906;2022-07-25T08:53:18;6.90;;;6.20;;
16179;SDS011;8196;49.428;10.906;2022-07-25T08:56:02;6.57;;;6.07;;
16179;SDS011;8196;49.428;10.906;2022-07-25T08:58:38;6.95;;;6.25;;
16179;SDS011;8196;49.428;10.906;2022-07-25T09:01:06;8.07;;;6.18;;
16179;SDS011;8196;49.428;10.906;2022-07-25T09:03:33;7.10;;;6.40;;
16179;SDS011;8196;49.428;10.906;2022-07-25T09:06:11;6.88;;;6.28;;
16179;SDS011;8196;49.428;10.906;2022-07-25T09:08:48;7.07;;;6.43;;
16179;SDS011;8196;49.428;10.906;2022-07-25T09:11:24;7.03;;;6.33;;
16179;SDS011;8196;49.428;10.906;2022-07-25T09:13:56;7.13;;;6.45;;
16179;SDS011;8196;49.428;10.906;2022-07-25T09:16:31;7.70;;;6.90;;
16179;SDS011;8196;49.428;10.906;2022-07-25T09:19:08;7.10;;;6.38;;
16179;SDS011;8196;49.428;10.906;2022-07-25T09:21:36;7.00;;;6.40;;
16179;SDS011;8196;49.428;10.906;2022-07-25T09:24:06;7.70;;;7.00;;
16179;SDS011;8196;49.428;10.906;2022-07-25T09:26:42;7.15;;;6.45;;
16179;SDS011;8196;49.428;10.906;2022-07-25T09:29:18;7.30;;;6.60;;
16179;SDS011;8196;49.428;10.906;2022-07-25T09:31:46;8.15;;;7.05;;
16179;SDS011;8196;49.428;10.906;2022-07-25T09:34:36;7.22;;;6.63;;
16179;SDS011;8196;49.428;10.906;2022-07-25T09:37:02;7.47;;;6.88;;
16179;SDS011;8196;49.428;10.906;2022-07-25T09:39:33;7.17;;;6.57;;
16179;SDS011;8196;49.428;10.906;2022-07-25T09:42:01;7.25;;;6.55;;
16179;SDS011;8196;49.428;10.906;2022-07-25T09:44:28;7.05;;;6.45;;
16179;SDS011;8196;49.428;10.906;2022-07-25T09:46:55;7.03;;;6.43;;
16179;SDS011;8196;49.428;10.906;2022-07-25T09:49:24;7.07;;;6.47;;
16179;SDS011;8196;49.428;10.906;2022-07-25T09:51:52;6.93;;;6.32;;
16179;SDS011;8196;49.428;10.906;2022-07-25T09:54:19;7.20;;;6.60;;
16179;SDS011;8196;49.428;10.906;2022-07-25T09:56:46;7.43;;;6.72;;
16179;SDS011;8196;49.428;10.906;2022-07-25T09:59:13;6.65;;;6.15;;
16179;SDS011;8196;49.428;10.906;2022-07-25T10:01:42;6.65;;;6.05;;
16179;SDS011;8196;49.428;10.906;2022-07-25T10:04:14;6.80;;;6.20;;
16179;SDS011;8196;49.428;10.906;2022-07-25T10:06:48;6.90;;;6.30;;
16179;SDS011;8196;49.428;10.906;2022-07-25T10:09:17;6.90;;;6.40;;
16179;SDS011;8196;49.428;10.906;2022-07-25T10:14:32;7.00;;;6.35;;
16179;SDS011;8196;49.428;10.906;2022-07-25T10:16:59;6.85;;;6.25;;
16179;SDS011;8196;49.428;10.906;2022-07-25T10:22:20;7.00;;;6.50;;
16179;SDS011;8196;49.428;10.906;2022-07-25T10:25:12;7.00;;;6.40;;
16179;SDS011;8196;49.428;10.906;2022-07-25T10:27:48;7.70;;;7.00;;
16179;SDS011;8196;49.428;10.906;2022-07-25T10:30:18;7.28;;;6.70;;
16179;SDS011;8196;49.428;10.906;2022-07-25T10:33:02;7.15;;;6.55;;
16179;SDS011;8196;49.428;10.906;2022-07-25T10:35:30;7.25;;;6.75;;
16179;SDS011;8196;49.428;10.906;2022-07-25T10:37:58;7.57;;;6.93;;
16179;SDS011;8196;49.428;10.906;2022-07-25T10:42:56;7.17;;;6.67;;
16179;SDS011;8196;49.428;10.906;2022-07-25T10:45:25;7.88;;;7.10;;
16179;SDS011;8196;49.428;10.906;2022-07-25T10:47:53;7.45;;;6.88;;
16179;SDS011;8196;49.428;10.906;2022-07-25T10:50:21;7.57;;;6.87;;
16179;SDS011;8196;49.428;10.906;2022-07-25T10:53:08;6.77;;;6.27;;
16179;SDS011;8196;49.428;10.906;2022-07-25T10:55:35;6.43;;;5.93;;
16179;SDS011;8196;49.428;10.906;2022-07-25T10:58:03;7.03;;;6.53;;
16179;SDS011;8196;49.428;10.906;2022-07-25T11:00:47;6.30;;;5.80;;
16179;SDS011;8196;49.428;10.906;2022-07-25T11:03:16;6.80;;;6.28;;
16179;SDS011;8196;49.428;10.906;2022-07-25T11:05:44;6.63;;;6.18;;
16179;SDS011;8196;49.428;10.906;2022-07-25T11:08:12;6.93;;;6.43;;
16179;SDS011;8196;49.428;10.906;2022-07-25T11:10:49;6.63;;;6.20;;
16179;SDS011;8196;49.428;10.906;2022-07-25T11:13:17;6.53;;;5.97;;
16179;SDS011;8196;49.428;10.906;2022-07-25T11:15:44;6.85;;;6.28;;
16179;SDS011;8196;49.428;10.906;2022-07-25T11:18:12;7.03;;;6.53;;
16179;SDS011;8196;49.428;10.906;2022-07-25T11:20:39;6.57;;;5.97;;
16179;SDS011;8196;49.428;10.906;2022-07-25T11:23:07;6.88;;;6.35;;
16179;SDS011;8196;49.428;10.906;2022-07-25T11:25:33;6.57;;;6.07;;
16179;SDS011;8196;49.428;10.906;2022-07-25T11:28:00;6.60;;;6.10;;
16179;SDS011;8196;49.428;10.906;2022-07-25T11:30:28;7.00;;;6.40;;
16179;SDS011;8196;49.428;10.906;2022-07-25T11:32:57;6.63;;;6.23;;
16179;SDS011;8196;49.428;10.906;2022-07-25T11:35:27;5.93;;;5.43;;
16179;SDS011;8196;49.428;10.906;2022-07-25T11:37:55;6.85;;;6.38;;
16179;SDS011;8196;49.428;10.906;2022-07-25T11:40:23;6.37;;;5.87;;
16179;SDS011;8196;49.428;10.906;2022-07-25T11:42:51;6.70;;;6.20;;
16179;SDS011;8196;49.428;10.906;2022-07-25T11:45:21;6.73;;;6.20;;
16179;SDS011;8196;49.428;10.906;2022-07-25T11:48:01;6.30;;;5.80;;
16179;SDS011;8196;49.428;10.906;2022-07-25T11:50:30;6.43;;;5.95;;
16179;SDS011;8196;49.428;10.906;2022-07-25T11:52:58;6.20;;;5.70;;
16179;SDS011;8196;49.428;10.906;2022-07-25T11:55:27;6.03;;;5.63;;
16179;SDS011;8196;49.428;10.906;2022-07-25T11:57:57;6.72;;;6.22;;
16179;SDS011;8196;49.428;10.906;2022-07-25T12:00:24;6.68;;;6.18;;
16179;SDS011;8196;49.428;10.906;2022-07-25T12:02:52;6.60;;;6.10;;
16179;SDS011;8196;49.428;10.906;2022-07-25T12:05:20;7.55;;;6.95;;
16179;SDS011;8196;49.428;10.906;2022-07-25T12:07:49;7.30;;;6.63;;
16179;SDS011;8196;49.428;10.906;2022-07-25T12:12:44;6.93;;;6.43;;
16179;SDS011;8196;49.428;10.906;2022-07-25T12:15:14;7.97;;;7.18;;
16179;SDS011;8196;49.428;10.906;2022-07-25T12:17:43;7.53;;;6.75;;
16179;SDS011;8196;49.428;10.906;2022-07-25T12:20:14;7.28;;;6.68;;
16179;SDS011;8196;49.428;10.906;2022-07-25T12:22:41;7.72;;;7.13;;
16179;SDS011;8196;49.428;10.906;2022-07-25T12:25:09;7.45;;;6.85;;
16179;SDS011;8196;49.428;10.906;2022-07-25T12:27:37;7.60;;;7.00;;
16179;SDS011;8196;49.428;10.906;2022-07-25T12:30:04;7.50;;;6.90;;
16179;SDS011;8196;49.428;10.906;2022-07-25T12:32:32;6.75;;;6.25;;
16179;SDS011;8196;49.428;10.906;2022-07-25T12:34:59;6.63;;;6.13;;
16179;SDS011;8196;49.428;10.906;2022-07-25T12:37:26;6.67;;;6.17;;
16179;SDS011;8196;49.428;10.906;2022-07-25T12:39:54;7.35;;;6.75;;
16179;SDS011;8196;49.428;10.906;2022-07-25T12:42:22;5.90;;;5.40;;
16179;SDS011;8196;49.428;10.906;2022-07-25T12:44:49;5.50;;;5.00;;
16179;SDS011;8196;49.428;10.906;2022-07-25T12:47:16;6.13;;;5.60;;
16179;SDS011;8196;49.428;10.906;2022-07-25T12:49:43;5.85;;;5.45;;
16179;SDS011;8196;49.428;10.906;2022-07-25T12:52:10;6.20;;;5.60;;
16179;SDS011;8196;49.428;10.906;2022-07-25T12:54:37;5.97;;;5.47;;
16179;SDS011;8196;49.428;10.906;2022-07-25T12:57:04;6.10;;;5.20;;
16179;SDS011;8196;49.428;10.906;2022-07-25T12:59:32;5.65;;;5.25;;
16179;SDS011;8196;49.428;10.906;2022-07-25T13:01:59;5.32;;;4.93;;
16179;SDS011;8196;49.428;10.906;2022-07-25T13:04:26;4.43;;;4.03;;
16179;SDS011;8196;49.428;10.906;2022-07-25T13:06:54;4.95;;;4.50;;
16179;SDS011;8196;49.428;10.906;2022-07-25T13:09:21;4.23;;;3.93;;
16179;SDS011;8196;49.428;10.906;2022-07-25T13:11:48;4.35;;;4.03;;
16179;SDS011;8196;49.428;10.906;2022-07-25T13:14:16;4.57;;;4.18;;
16179;SDS011;8196;49.428;10.906;2022-07-25T13:16:43;4.30;;;4.00;;
16179;SDS011;8196;49.428;10.906;2022-07-25T13:19:11;4.13;;;3.83;;
16179;SDS011;8196;49.428;10.906;2022-07-25T13:21:38;3.20;;;2.92;;
16179;SDS011;8196;49.428;10.906;2022-07-25T13:24:05;3.50;;;3.20;;
16179;SDS011;8196;49.428;10.906;2022-07-25T13:26:33;3.10;;;2.90;;
16179;SDS011;8196;49.428;10.906;2022-07-25T13:29:00;3.20;;;2.90;;
16179;SDS011;8196;49.428;10.906;2022-07-25T13:31:27;3.17;;;2.97;;
16179;SDS011;8196;49.428;10.906;2022-07-25T13:33:55;3.45;;;3.13;;
16179;SDS011;8196;49.428;10.906;2022-07-25T13:36:21;3.13;;;2.92;;
16179;SDS011;8196;49.428;10.906;2022-07-25T13:38:49;3.78;;;3.40;;
16179;SDS011;8196;49.428;10.906;2022-07-25T13:41:16;3.53;;;3.22;;
16179;SDS011;8196;49.428;10.906;2022-07-25T13:43:46;5.18;;;3.40;;
16179;SDS011;8196;49.428;10.906;2022-07-25T13:46:13;3.65;;;3.42;;
16179;SDS011;8196;49.428;10.906;2022-07-25T13:48:40;3.60;;;3.40;;
16179;SDS011;8196;49.428;10.906;2022-07-25T13:51:07;4.30;;;3.63;;
16179;SDS011;8196;49.428;10.906;2022-07-25T13:53:34;4.20;;;3.80;;
16179;SDS011;8196;49.428;10.906;2022-07-25T13:56:01;3.97;;;3.50;;
16179;SDS011;8196;49.428;10.906;2022-07-25T13:58:30;3.90;;;3.60;;
16179;SDS011;8196;49.428;10.906;2022-07-25T14:00:57;4.07;;;3.67;;
16179;SDS011;8196;49.428;10.906;2022-07-25T14:03:24;4.10;;;3.80;;
16179;SDS011;8196;49.428;10.906;2022-07-25T14:05:51;4.53;;;4.13;;
16179;SDS011;8196;49.428;10.906;2022-07-25T14:08:18;4.30;;;3.97;;
16179;SDS011;8196;49.428;10.906;2022-07-25T14:10:46;4.07;;;3.78;;
16179;SDS011;8196;49.428;10.906;2022-07-25T14:13:13;4.30;;;3.90;;
16179;SDS011;8196;49.428;10.906;2022-07-25T14:15:40;4.10;;;3.80;;
16179;SDS011;8196;49.428;10.906;2022-07-25T14:18:07;5.78;;;4.00;;
16179;SDS011;8196;49.428;10.906;2022-07-25T14:20:34;4.63;;;4.22;;
16179;SDS011;8196;49.428;10.906;2022-07-25T14:23:02;5.50;;;4.18;;
16179;SDS011;8196;49.428;10.906;2022-07-25T14:25:29;4.53;;;4.22;;
16179;SDS011;8196;49.428;10.906;2022-07-25T14:27:57;4.40;;;4.10;;
16179;SDS011;8196;49.428;10.906;2022-07-25T14:30:25;4.80;;;4.40;;
16179;SDS011;8196;49.428;10.906;2022-07-25T14:32:51;4.55;;;4.15;;
16179;SDS011;8196;49.428;10.906;2022-07-25T14:35:19;4.78;;;4.38;;
16179;SDS011;8196;49.428;10.906;2022-07-25T14:37:46;4.90;;;4.47;;
16179;SDS011;8196;49.428;10.906;2022-07-25T14:40:13;4.78;;;4.38;;
16179;SDS011;8196;49.428;10.906;2022-07-25T14:42:40;4.83;;;4.43;;
16179;SDS011;8196;49.428;10.906;2022-07-25T14:45:09;4.88;;;4.40;;
16179;SDS011;8196;49.428;10.906;2022-07-25T14:47:38;5.35;;;4.80;;
16179;SDS011;8196;49.428;10.906;2022-07-25T14:50:05;5.18;;;4.75;;
16179;SDS011;8196;49.428;10.906;2022-07-25T14:52:32;5.43;;;4.93;;